Observation data for Silverton on 07/04/2020      Previous  Date  Next       Current Mesonet Observations  Soil Data  Daily Summary Page  Observations in Plain Language
KSVS 040500Z 15008KT 25/14 A3009 RMK A01 T02520141  RH  053%=      5-min Rain = 0
KSVS 040505Z 15008KT 26/14 A3009 RMK A01 T02570140  RH  051%=      5-min Rain = 0
KSVS 040510Z 16008KT 26/14 A3009 RMK A01 T02590141  RH  050%=      5-min Rain = 0
KSVS 040515Z 16008KT 26/14 A3009 RMK A01 T02580140  RH  050%=      5-min Rain = 0
KSVS 040520Z 16007KT 26/14 A3009 RMK A01 T02560140  RH  051%=      5-min Rain = 0
KSVS 040525Z 16007KT 26/14 A3009 RMK A01 T02550140  RH  051%=      5-min Rain = 0
KSVS 040530Z 16007KT 25/14 A3009 RMK A01 T02530139  RH  052%=      5-min Rain = 0
KSVS 040535Z 16007KT 25/14 A3009 RMK A01 T02520139  RH  052%=      5-min Rain = 0
KSVS 040540Z 16007KT 25/14 A3009 RMK A01 T02500139  RH  052%=      5-min Rain = 0
KSVS 040545Z 17007KT 25/14 A3009 RMK A01 T02480138  RH  053%=      5-min Rain = 0
KSVS 040550Z 17007KT 25/14 A3009 RMK A01 T02460138  RH  053%=      5-min Rain = 0
KSVS 040555Z 17007KT 24/14 A3009 RMK A01 T02440138  RH  054%=      5-min Rain = 0
KSVS 040600Z 16006KT 24/14 A3009 RMK A01 T02420137  RH  054%=      5-min Rain = 0
KSVS 040605Z 16006KT 24/14 A3009 RMK A01 T02400137  RH  055%=      5-min Rain = 0
KSVS 040610Z 17006KT 24/14 A3009 RMK A01 T02390137  RH  055%=      5-min Rain = 0
KSVS 040615Z 17007KT 24/14 A3009 RMK A01 T02390136  RH  055%=      5-min Rain = 0
KSVS 040620Z 17007KT 23/14 A3008 RMK A01 T02340135  RH  056%=      5-min Rain = 0
KSVS 040625Z 17008KT 23/14 A3008 RMK A01 T02290135  RH  058%=      5-min Rain = 0
KSVS 040630Z 17007KT 23/14 A3008 RMK A01 T02260136  RH  059%=      5-min Rain = 0
KSVS 040635Z 17008KT 23/14 A3008 RMK A01 T02270135  RH  059%=      5-min Rain = 0
KSVS 040640Z 17008KT 23/14 A3007 RMK A01 T02300136  RH  058%=      5-min Rain = 0
KSVS 040645Z 17008KT 23/14 A3007 RMK A01 T02320136  RH  057%=      5-min Rain = 0
KSVS 040650Z 17008KT 23/14 A3007 RMK A01 T02330136  RH  057%=      5-min Rain = 0
KSVS 040655Z 17007KT 23/14 A3007 RMK A01 T02340137  RH  057%=      5-min Rain = 0
KSVS 040700Z 17008KT 24/14 A3007 RMK A01 T02350138  RH  057%=      5-min Rain = 0
KSVS 040705Z 16008KT 24/14 A3007 RMK A01 T02420140  RH  055%=      5-min Rain = 0
KSVS 040710Z 16008KT 25/14 A3007 RMK A01 T02460141  RH  054%=      5-min Rain = 0
KSVS 040715Z 16008KT 25/14 A3007 RMK A01 T02490143  RH  054%=      5-min Rain = 0
KSVS 040720Z 16007KT 25/14 A3007 RMK A01 T02490144  RH  054%=      5-min Rain = 0
KSVS 040725Z 15007KT 25/14 A3007 RMK A01 T02480144  RH  055%=      5-min Rain = 0
KSVS 040730Z 15007KT 25/14 A3007 RMK A01 T02460143  RH  055%=      5-min Rain = 0
KSVS 040735Z 16007KT 24/14 A3007 RMK A01 T02440143  RH  055%=      5-min Rain = 0
KSVS 040740Z 16006KT 24/14 A3007 RMK A01 T02410142  RH  056%=      5-min Rain = 0
KSVS 040745Z 16007KT 24/14 A3007 RMK A01 T02360142  RH  058%=      5-min Rain = 0
KSVS 040750Z 17007KT 23/14 A3007 RMK A01 T02310142  RH  060%=      5-min Rain = 0
KSVS 040755Z 17007KT 23/14 A3007 RMK A01 T02280142  RH  061%=      5-min Rain = 0
KSVS 040800Z 17007KT 23/14 A3007 RMK A01 T02250141  RH  062%=      5-min Rain = 0
KSVS 040805Z 17007KT 22/14 A3006 RMK A01 T02230140  RH  062%=      5-min Rain = 0
KSVS 040810Z 17008KT 23/14 A3006 RMK A01 T02260139  RH  060%=      5-min Rain = 0
KSVS 040815Z 17008KT 23/14 A3007 RMK A01 T02290139  RH  059%=      5-min Rain = 0
KSVS 040820Z 17008KT 23/14 A3007 RMK A01 T02280139  RH  060%=      5-min Rain = 0
KSVS 040825Z 17008KT 23/14 A3007 RMK A01 T02290140  RH  060%=      5-min Rain = 0
KSVS 040830Z 17005KT 23/14 A3007 RMK A01 T02320140  RH  059%=      5-min Rain = 0
KSVS 040835Z 01004G10KT 23/14 A3007 RMK A01 T02250140  RH  061%=      5-min Rain = 0
KSVS 040840Z 34009KT 21/14 A3008 RMK A01 T02130139  RH  065%=      5-min Rain = 0
KSVS 040845Z 33005KT 22/14 A3008 RMK A01 T02180140  RH  064%=      5-min Rain = 0
KSVS 040850Z 33002KT 23/14 A3008 RMK A01 T02290142  RH  061%=      5-min Rain = 0
KSVS 040855Z 33002KT 24/14 A3008 RMK A01 T02370142  RH  058%=      5-min Rain = 0
KSVS 040900Z 32002KT 24/14 A3008 RMK A01 T02440141  RH  055%=      5-min Rain = 0
KSVS 040905Z 32003KT 25/14 A3008 RMK A01 T02450141  RH  055%=      5-min Rain = 0
KSVS 040910Z 32003KT 23/14 A3008 RMK A01 T02330143  RH  059%=      5-min Rain = 0
KSVS 040915Z 35004KT 23/14 A3008 RMK A01 T02290144  RH  061%=      5-min Rain = 0
KSVS 040920Z 34005KT 22/15 A3008 RMK A01 T02240146  RH  064%=      5-min Rain = 0
KSVS 040925Z 33006KT 22/15 A3009 RMK A01 T02210145  RH  065%=      5-min Rain = 0
KSVS 040930Z 33006KT 22/15 A3009 RMK A01 T02200145  RH  065%=      5-min Rain = 0
KSVS 040935Z 34007KT 22/15 A3009 RMK A01 T02180145  RH  066%=      5-min Rain = 0
KSVS 040940Z 35008KT 22/15 A3009 RMK A01 T02210146  RH  065%=      5-min Rain = 0
KSVS 040945Z 34007KT 22/15 A3009 RMK A01 T02240147  RH  064%=      5-min Rain = 0
KSVS 040950Z 34006KT 22/15 A3009 RMK A01 T02240146  RH  064%=      5-min Rain = 0
KSVS 040955Z 35006KT 23/15 A3009 RMK A01 T02250147  RH  064%=      5-min Rain = 0
KSVS 041000Z 34005KT 22/15 A3009 RMK A01 T02210146  RH  065%=      5-min Rain = 0
KSVS 041005Z 34007KT 22/15 A3009 RMK A01 T02200146  RH  066%=      5-min Rain = 0
KSVS 041010Z 34006KT 23/15 A3009 RMK A01 T02270148  RH  064%=      5-min Rain = 0
KSVS 041015Z 35006KT 23/15 A3009 RMK A01 T02270149  RH  064%=      5-min Rain = 0
KSVS 041020Z 35004KT 23/15 A3009 RMK A01 T02300150  RH  063%=      5-min Rain = 0
KSVS 041025Z 33003KT 23/15 A3009 RMK A01 T02280150  RH  064%=      5-min Rain = 0
KSVS 041030Z 33006KT 23/15 A3009 RMK A01 T02250149  RH  065%=      5-min Rain = 0
KSVS 041035Z 35006KT 22/15 A3009 RMK A01 T02210150  RH  067%=      5-min Rain = 0
KSVS 041040Z 01007KT 22/15 A3008 RMK A01 T02240149  RH  065%=      5-min Rain = 0
KSVS 041045Z 01006KT 22/15 A3008 RMK A01 T02180148  RH  067%=      5-min Rain = 0
KSVS 041050Z 36004KT 21/15 A3008 RMK A01 T02130148  RH  069%=      5-min Rain = 0
KSVS 041055Z 00004KT 21/15 A3008 RMK A01 T02120148  RH  069%=      5-min Rain = 0
KSVS 041100Z 00005KT 21/15 A3008 RMK A01 T02110146  RH  070%=      5-min Rain = 0
KSVS 041105Z 01006KT 21/15 A3008 RMK A01 T02090146  RH  070%=      5-min Rain = 0
KSVS 041110Z 02006KT 21/15 A3008 RMK A01 T02070146  RH  071%=      5-min Rain = 0
KSVS 041115Z 02007KT 20/15 A3008 RMK A01 T02040147  RH  073%=      5-min Rain = 0
KSVS 041120Z 03008KT 20/15 A3008 RMK A01 T02040148  RH  073%=      5-min Rain = 0
KSVS 041125Z 02009KT 21/15 A3009 RMK A01 T02070150  RH  073%=      5-min Rain = 0
KSVS 041130Z 02007KT 21/15 A3008 RMK A01 T02110150  RH  071%=      5-min Rain = 0
KSVS 041135Z 02006KT 21/15 A3008 RMK A01 T02090150  RH  072%=      5-min Rain = 0
KSVS 041140Z 01005KT 21/15 A3008 RMK A01 T02090149  RH  072%=      5-min Rain = 0
KSVS 041145Z 34004KT 20/15 A3008 RMK A01 T02040148  RH  073%=      5-min Rain = 0
KSVS 041150Z 35004KT 20/15 A3009 RMK A01 T02030148  RH  074%=      5-min Rain = 0
KSVS 041155Z 32004KT 20/15 A3009 RMK A01 T02040148  RH  074%=      5-min Rain = 0
KSVS 041200Z 33004KT 20/15 A3009 RMK A01 T02030149  RH  074%=      5-min Rain = 0
KSVS 041205Z 34005KT 20/15 A3009 RMK A01 T02040150  RH  074%=      5-min Rain = 0
KSVS 041210Z 34005KT 21/15 A3009 RMK A01 T02070152  RH  074%=      5-min Rain = 0
KSVS 041215Z 34006KT 21/15 A3009 RMK A01 T02100151  RH  072%=      5-min Rain = 0
KSVS 041220Z 34006KT 22/15 A3009 RMK A01 T02150154  RH  071%=      5-min Rain = 0
KSVS 041225Z 34004KT 22/16 A3008 RMK A01 T02220155  RH  069%=      5-min Rain = 0
KSVS 041230Z 34004KT 23/16 A3008 RMK A01 T02280156  RH  067%=      5-min Rain = 0
KSVS 041235Z 34004KT 24/16 A3008 RMK A01 T02360157  RH  064%=      5-min Rain = 0
KSVS 041240Z 35004KT 24/16 A3008 RMK A01 T02440159  RH  062%=      5-min Rain = 0
KSVS 041245Z 36005KT 25/16 A3008 RMK A01 T02510158  RH  059%=      5-min Rain = 0
KSVS 041250Z 00008KT 25/16 A3008 RMK A01 T02540157  RH  058%=      5-min Rain = 0
KSVS 041255Z 35009KT 26/16 A3008 RMK A01 T02560157  RH  057%=      5-min Rain = 0
KSVS 041300Z 35004KT 26/16 A3007 RMK A01 T02590157  RH  056%=      5-min Rain = 0
KSVS 041305Z 35005KT 26/16 A3007 RMK A01 T02610157  RH  055%=      5-min Rain = 0
KSVS 041310Z 34007KT 26/16 A3007 RMK A01 T02600157  RH  056%=      5-min Rain = 0
KSVS 041315Z 35004KT 26/16 A3007 RMK A01 T02590156  RH  056%=      5-min Rain = 0
KSVS 041320Z 34008KT 26/16 A3008 RMK A01 T02610156  RH  055%=      5-min Rain = 0
KSVS 041325Z 33005KT 26/15 A3008 RMK A01 T02620154  RH  054%=      5-min Rain = 0
KSVS 041330Z 34008KT 26/15 A3008 RMK A01 T02620153  RH  053%=      5-min Rain = 0
KSVS 041335Z 34010KT 26/15 A3008 RMK A01 T02590149  RH  053%=      5-min Rain = 0
KSVS 041340Z 34008KT 26/15 A3008 RMK A01 T02570150  RH  054%=      5-min Rain = 0
KSVS 041345Z 35007KT 26/15 A3008 RMK A01 T02640152  RH  053%=      5-min Rain = 0
KSVS 041350Z 00007KT 27/15 A3008 RMK A01 T02670151  RH  051%=      5-min Rain = 0
KSVS 041355Z 35007KT 27/15 A3008 RMK A01 T02700151  RH  050%=      5-min Rain = 0
KSVS 041400Z 35006KT 27/15 A3008 RMK A01 T02740150  RH  049%=      5-min Rain = 0
KSVS 041405Z 36008KT 28/15 A3008 RMK A01 T02770148  RH  047%=      5-min Rain = 0
KSVS 041410Z 01006KT 28/15 A3008 RMK A01 T02790147  RH  047%=      5-min Rain = 0
KSVS 041415Z 36006KT 28/15 A3008 RMK A01 T02840149  RH  046%=      5-min Rain = 0
KSVS 041420Z 02006KT 29/15 A3008 RMK A01 T02850150  RH  046%=      5-min Rain = 0
KSVS 041425Z 02007KT 28/15 A3008 RMK A01 T02840150  RH  046%=      5-min Rain = 0
KSVS 041430Z 02007KT 29/15 A3008 RMK A01 T02860150  RH  045%=      5-min Rain = 0
KSVS 041435Z 02008G13KT 29/15 A3008 RMK A01 T02870150  RH  045%=      5-min Rain = 0
KSVS 041440Z 03009KT 29/15 A3008 RMK A01 T02860150  RH  045%=      5-min Rain = 0
KSVS 041445Z 03009KT 28/15 A3008 RMK A01 T02830150  RH  046%=      5-min Rain = 0
KSVS 041450Z 02009KT 28/15 A3008 RMK A01 T02840149  RH  046%=      5-min Rain = 0
KSVS 041455Z 04010KT 28/15 A3008 RMK A01 T02830148  RH  046%=      5-min Rain = 0
KSVS 041500Z 05009KT 28/15 A3008 RMK A01 T02830148  RH  046%=      5-min Rain = 0
KSVS 041505Z 03008KT 28/15 A3008 RMK A01 T02830151  RH  047%=      5-min Rain = 0
KSVS 041510Z 05008KT 28/15 A3008 RMK A01 T02840150  RH  046%=      5-min Rain = 0
KSVS 041515Z 04007KT 29/15 A3008 RMK A01 T02870150  RH  045%=      5-min Rain = 0
KSVS 041520Z 04008KT 29/15 A3008 RMK A01 T02900149  RH  044%=      5-min Rain = 0
KSVS 041525Z 04007KT 29/15 A3008 RMK A01 T02930150  RH  044%=      5-min Rain = 0
KSVS 041530Z 04007KT 29/15 A3008 RMK A01 T02940148  RH  043%=      5-min Rain = 0
KSVS 041535Z 03007KT 30/15 A3008 RMK A01 T02980150  RH  043%=      5-min Rain = 0
KSVS 041540Z 03006KT 30/15 A3008 RMK A01 T02980149  RH  042%=      5-min Rain = 0
KSVS 041545Z 05005KT 30/15 A3008 RMK A01 T03040150  RH  041%=      5-min Rain = 0
KSVS 041550Z 02005KT 30/15 A3008 RMK A01 T03010149  RH  041%=      5-min Rain = 0
KSVS 041555Z 03006KT 30/15 A3008 RMK A01 T03010148  RH  041%=      5-min Rain = 0
KSVS 041600Z 01006KT 30/15 A3008 RMK A01 T03030147  RH  041%=      5-min Rain = 0
KSVS 041605Z 02005G10KT 30/15 A3008 RMK A01 T03020145  RH  040%=      5-min Rain = 0
KSVS 041610Z 02005KT 30/14 A3008 RMK A01 T03040144  RH  040%=      5-min Rain = 0
KSVS 041615Z 04003KT 30/14 A3008 RMK A01 T03020144  RH  040%=      5-min Rain = 0
KSVS 041620Z 05004KT 31/14 A3008 RMK A01 T03050144  RH  039%=      5-min Rain = 0
KSVS 041625Z 01004KT 31/14 A3008 RMK A01 T03060141  RH  038%=      5-min Rain = 0
KSVS 041630Z 36004KT 31/14 A3008 RMK A01 T03080142  RH  038%=      5-min Rain = 0
KSVS 041635Z 05003KT 32/14 A3008 RMK A01 T03150140  RH  036%=      5-min Rain = 0
KSVS 041640Z 03006KT 32/14 A3008 RMK A01 T03150139  RH  036%=      5-min Rain = 0
KSVS 041645Z 35002KT 32/14 A3008 RMK A01 T03160138  RH  035%=      5-min Rain = 0
KSVS 041650Z 03003KT 32/14 A3008 RMK A01 T03220139  RH  035%=      5-min Rain = 0
KSVS 041655Z 06006KT 32/14 A3008 RMK A01 T03190142  RH  036%=      5-min Rain = 0
KSVS 041700Z 02005KT 32/14 A3008 RMK A01 T03160139  RH  036%=      5-min Rain = 0
KSVS 041705Z 05004G9KT 32/14 A3008 RMK A01 T03200139  RH  035%=      5-min Rain = 0
KSVS 041710Z 05006KT 32/14 A3008 RMK A01 T03240139  RH  034%=      5-min Rain = 0
KSVS 041715Z 04008KT 32/14 A3008 RMK A01 T03240140  RH  034%=      5-min Rain = 0
KSVS 041720Z 04005KT 32/14 A3009 RMK A01 T03220139  RH  034%=      5-min Rain = 0
KSVS 041725Z 02007KT 33/14 A3008 RMK A01 T03260141  RH  034%=      5-min Rain = 0
KSVS 041730Z 05003KT 33/14 A3008 RMK A01 T03270138  RH  033%=      5-min Rain = 0
KSVS 041735Z 05005KT 33/14 A3008 RMK A01 T03340139  RH  032%=      5-min Rain = 0
KSVS 041740Z 02007KT 33/14 A3008 RMK A01 T03290140  RH  033%=      5-min Rain = 0
KSVS 041745Z 06008KT 33/14 A3008 RMK A01 T03280140  RH  034%=      5-min Rain = 0
KSVS 041750Z 06004KT 33/14 A3008 RMK A01 T03250137  RH  033%=      5-min Rain = 0
KSVS 041755Z 06004G9KT 33/13 A3008 RMK A01 T03280134  RH  032%=      5-min Rain = 0
KSVS 041800Z 06005KT 33/13 A3008 RMK A01 T03310134  RH  032%=      5-min Rain = 0
KSVS 041805Z 07003G8KT 33/14 A3008 RMK A01 T03320137  RH  032%=      5-min Rain = 0
KSVS 041810Z 36007G13KT 34/14 A3008 RMK A01 T03360137  RH  031%=      5-min Rain = 0
KSVS 041815Z 35008KT 34/14 A3008 RMK A01 T03350138  RH  032%=      5-min Rain = 0
KSVS 041820Z 35007KT 34/14 A3008 RMK A01 T03390137  RH  031%=      5-min Rain = 0
KSVS 041825Z 05004G9KT 34/14 A3007 RMK A01 T03350136  RH  031%=      5-min Rain = 0
KSVS 041830Z 11004KT 34/14 A3007 RMK A01 T03360135  RH  031%=      5-min Rain = 0
KSVS 041835Z 33004KT 34/14 A3007 RMK A01 T03380137  RH  031%=      5-min Rain = 0
KSVS 041840Z 01004G11KT 34/14 A3007 RMK A01 T03370140  RH  032%=      5-min Rain = 0
KSVS 041845Z 00005KT 34/14 A3007 RMK A01 T03390139  RH  031%=      5-min Rain = 0
KSVS 041850Z 02008G14KT 34/14 A3006 RMK A01 T03400139  RH  031%=      5-min Rain = 0
KSVS 041855Z 36008KT 34/14 A3006 RMK A01 T03400137  RH  031%=      5-min Rain = 0
KSVS 041900Z 04006KT 34/14 A3006 RMK A01 T03400138  RH  031%=      5-min Rain = 0
KSVS 041905Z 10008G13KT 35/14 A3006 RMK A01 T03490142  RH  030%=      5-min Rain = 0
KSVS 041910Z 03008KT 35/14 A3005 RMK A01 T03490140  RH  030%=      5-min Rain = 0
KSVS 041915Z 01007G12KT 35/14 A3005 RMK A01 T03490138  RH  029%=      5-min Rain = 0
KSVS 041920Z 02006KT 35/14 A3005 RMK A01 T03470137  RH  029%=      5-min Rain = 0
KSVS 041925Z 07010G16KT 35/14 A3005 RMK A01 T03480143  RH  031%=      5-min Rain = 0
KSVS 041930Z 04007KT 33/14 A3005 RMK A01 T03340139  RH  032%=      5-min Rain = 0
KSVS 041935Z 02007KT 33/14 A3004 RMK A01 T03280138  RH  033%=      5-min Rain = 0
KSVS 041940Z 03006G13KT 33/14 A3004 RMK A01 T03270138  RH  033%=      5-min Rain = 0
KSVS 041945Z 04008G13KT 33/14 A3004 RMK A01 T03250142  RH  034%=      5-min Rain = 0
KSVS 041950Z 03007G15KT 32/14 A3004 RMK A01 T03240142  RH  035%=      5-min Rain = 0
KSVS 041955Z 08009KT 33/14 A3003 RMK A01 T03260142  RH  034%=      5-min Rain = 0
KSVS 042000Z 08008KT 33/14 A3004 RMK A01 T03260144  RH  035%=      5-min Rain = 0
KSVS 042005Z 11005G10KT 33/14 A3004 RMK A01 T03260144  RH  035%=      5-min Rain = 0
KSVS 042010Z 20015G26KT 30/18 A3004 RMK A01 T02970175  RH  052%=      5-min Rain = 0
KSVS 042015Z 19022G29KT 26/18 A3004 RMK A01 T02640182  RH  064%=      5-min Rain = 0
KSVS 042020Z 17024G33KT 26/19 A3004 RMK A01 T02600192  RH  070%=      5-min Rain = 0
KSVS 042025Z 14035G45KT 24/17 A3004 RMK A01 T02420167  RH  066%=      5-min Rain = 0.01
KSVS 042030Z 13028G41KT 23/16 A3004 RMK A01 T02330156  RH  065%=      5-min Rain = 0
KSVS 042035Z 11021G27KT 24/16 A3003 RMK A01 T02400157  RH  062%=      5-min Rain = 0
KSVS 042040Z 10017G22KT 24/16 A3003 RMK A01 T02420159  RH  063%=      5-min Rain = 0
KSVS 042045Z 12010G17KT 25/16 A3003 RMK A01 T02480159  RH  060%=      5-min Rain = 0
KSVS 042050Z 12009G14KT 25/16 A3003 RMK A01 T02460164  RH  063%=      5-min Rain = 0
KSVS 042055Z 13007KT 24/16 A3003 RMK A01 T02400163  RH  065%=      5-min Rain = 0
KSVS 042100Z 26012G24KT 25/16 A3005 RMK A01 T02450163  RH  063%=      5-min Rain = 0
KSVS 042105Z 28012G20KT 24/17 A3005 RMK A01 T02380174  RH  072%=      5-min Rain = 0.06
KSVS 042110Z 28010KT 22/18 A3004 RMK A01 T02230180  RH  081%=      5-min Rain = 0.03
KSVS 042115Z 30007KT 23/19 A3004 RMK A01 T02260188  RH  083%=      5-min Rain = 0.01
KSVS 042120Z 34003KT 23/20 A3005 RMK A01 T02340195  RH  083%=      5-min Rain = 0
KSVS 042125Z 01007G12KT 24/20 A3005 RMK A01 T02410202  RH  084%=      5-min Rain = 0
KSVS 042130Z 03010KT 24/19 A3004 RMK A01 T02380191  RH  079%=      5-min Rain = 0
KSVS 042135Z 07005KT 24/19 A3003 RMK A01 T02430193  RH  078%=      5-min Rain = 0
KSVS 042140Z 10005KT 26/20 A3003 RMK A01 T02570200  RH  075%=      5-min Rain = 0
KSVS 042145Z 14007KT 27/19 A3002 RMK A01 T02680194  RH  068%=      5-min Rain = 0
KSVS 042150Z 15007KT 28/19 A3002 RMK A01 T02790188  RH  061%=      5-min Rain = 0
KSVS 042155Z 16007KT 29/19 A3002 RMK A01 T02860190  RH  059%=      5-min Rain = 0
KSVS 042200Z 16007KT 29/19 A3002 RMK A01 T02920191  RH  057%=      5-min Rain = 0
KSVS 042205Z 15010KT 29/18 A3001 RMK A01 T02870180  RH  055%=      5-min Rain = 0
KSVS 042210Z 15010KT 28/18 A3001 RMK A01 T02840184  RH  058%=      5-min Rain = 0
KSVS 042215Z 15010KT 29/19 A3001 RMK A01 T02880187  RH  058%=      5-min Rain = 0
KSVS 042220Z 16011KT 30/18 A3001 RMK A01 T02990177  RH  051%=      5-min Rain = 0
KSVS 042225Z 15011KT 30/17 A3001 RMK A01 T03010172  RH  048%=      5-min Rain = 0
KSVS 042230Z 14009KT 30/17 A30 RMK A01 T02960169  RH  049%=      5-min Rain = 0
KSVS 042235Z 14008KT 30/17 A30 RMK A01 T03010173  RH  049%=      5-min Rain = 0
KSVS 042240Z 11010G16KT 30/18 A30 RMK A01 T02990176  RH  050%=      5-min Rain = 0
KSVS 042245Z 07012G17KT 29/19 A30 RMK A01 T02860193  RH  060%=      5-min Rain = 0
KSVS 042250Z 08008KT 28/19 A30 RMK A01 T02840188  RH  059%=      5-min Rain = 0
KSVS 042255Z 08009KT 29/19 A30 RMK A01 T02860186  RH  058%=      5-min Rain = 0
KSVS 042300Z 07008KT 29/18 A30 RMK A01 T02860183  RH  057%=      5-min Rain = 0
KSVS 042305Z 08009KT 29/19 A30 RMK A01 T02890186  RH  057%=      5-min Rain = 0
KSVS 042310Z 07010KT 29/18 A30 RMK A01 T02890183  RH  056%=      5-min Rain = 0
KSVS 042315Z 07010KT 29/18 A3001 RMK A01 T02850183  RH  057%=      5-min Rain = 0
KSVS 042320Z 07010KT 28/19 A3001 RMK A01 T02840186  RH  059%=      5-min Rain = 0
KSVS 042325Z 06016G25KT 29/19 A3001 RMK A01 T02880186  RH  057%=      5-min Rain = 0
KSVS 042330Z 06017G26KT 27/19 A3001 RMK A01 T02700189  RH  065%=      5-min Rain = 0
KSVS 042335Z 06016G22KT 26/18 A3001 RMK A01 T02610184  RH  066%=      5-min Rain = 0.01
KSVS 042340Z 07013KT 26/18 A30 RMK A01 T02570183  RH  067%=      5-min Rain = 0
KSVS 042345Z 08012KT 25/18 A30 RMK A01 T02540181  RH  067%=      5-min Rain = 0
KSVS 042350Z 07013KT 25/18 A30 RMK A01 T02510179  RH  068%=      5-min Rain = 0
KSVS 042355Z 07012KT 25/18 A30 RMK A01 T02500181  RH  069%=      5-min Rain = 0
KSVS 050000Z 07013KT 25/18 A2999 RMK A01 T02540179  RH  066%=      5-min Rain = 0
KSVS 050005Z 08012KT 26/18 A2999 RMK A01 T02580182  RH  066%=      5-min Rain = 0
KSVS 050010Z 08014G19KT 26/18 A30 RMK A01 T02570183  RH  067%=      5-min Rain = 0
KSVS 050015Z 08014KT 26/19 A30 RMK A01 T02550185  RH  069%=      5-min Rain = 0
KSVS 050020Z 08012KT 25/19 A30 RMK A01 T02540189  RH  071%=      5-min Rain = 0
KSVS 050025Z 08014KT 25/19 A30 RMK A01 T02530186  RH  070%=      5-min Rain = 0
KSVS 050030Z 09014KT 25/19 A30 RMK A01 T02530185  RH  070%=      5-min Rain = 0
KSVS 050035Z 09013KT 25/19 A30 RMK A01 T02530185  RH  070%=      5-min Rain = 0
KSVS 050040Z 10013KT 26/19 A30 RMK A01 T02550185  RH  069%=      5-min Rain = 0
KSVS 050045Z 10012KT 26/18 A30 RMK A01 T02560184  RH  068%=      5-min Rain = 0
KSVS 050050Z 10013KT 26/18 A30 RMK A01 T02560183  RH  067%=      5-min Rain = 0
KSVS 050055Z 10010KT 26/18 A30 RMK A01 T02560184  RH  068%=      5-min Rain = 0
KSVS 050100Z 10010KT 26/19 A30 RMK A01 T02560185  RH  068%=      5-min Rain = 0
KSVS 050105Z 09013KT 25/18 A3001 RMK A01 T02540184  RH  069%=      5-min Rain = 0
KSVS 050110Z 10013KT 25/18 A3001 RMK A01 T02500182  RH  070%=      5-min Rain = 0
KSVS 050115Z 10014KT 25/18 A3001 RMK A01 T02480181  RH  070%=      5-min Rain = 0
KSVS 050120Z 10014KT 25/18 A3001 RMK A01 T02460181  RH  071%=      5-min Rain = 0
KSVS 050125Z 10012KT 24/18 A3001 RMK A01 T02440182  RH  072%=      5-min Rain = 0
KSVS 050130Z 11011KT 24/18 A3001 RMK A01 T02430183  RH  073%=      5-min Rain = 0
KSVS 050135Z 10011KT 24/18 A3001 RMK A01 T02430182  RH  072%=      5-min Rain = 0
KSVS 050140Z 11010KT 24/18 A3001 RMK A01 T02420182  RH  073%=      5-min Rain = 0
KSVS 050145Z 11010KT 24/18 A3001 RMK A01 T02410182  RH  073%=      5-min Rain = 0
KSVS 050150Z 11010KT 24/18 A3002 RMK A01 T02400182  RH  074%=      5-min Rain = 0
KSVS 050155Z 11009KT 24/18 A3002 RMK A01 T02380182  RH  075%=      5-min Rain = 0
KSVS 050200Z 11009KT 24/18 A3002 RMK A01 T02370183  RH  076%=      5-min Rain = 0
KSVS 050205Z 11009KT 23/18 A3002 RMK A01 T02340184  RH  077%=      5-min Rain = 0
KSVS 050210Z 11009KT 23/18 A3002 RMK A01 T02330184  RH  078%=      5-min Rain = 0
KSVS 050215Z 12010KT 23/18 A3001 RMK A01 T02340184  RH  078%=      5-min Rain = 0
KSVS 050220Z 12010KT 23/19 A3001 RMK A01 T02340185  RH  078%=      5-min Rain = 0
KSVS 050225Z 12011KT 23/19 A3001 RMK A01 T02330185  RH  078%=      5-min Rain = 0
KSVS 050230Z 11010KT 23/19 A3001 RMK A01 T02330185  RH  078%=      5-min Rain = 0
KSVS 050235Z 11011KT 23/19 A3001 RMK A01 T02310185  RH  079%=      5-min Rain = 0
KSVS 050240Z 11010KT 23/19 A3001 RMK A01 T02310185  RH  079%=      5-min Rain = 0
KSVS 050245Z 11009KT 23/19 A3001 RMK A01 T02300185  RH  080%=      5-min Rain = 0
KSVS 050250Z 11009KT 23/19 A3001 RMK A01 T02290185  RH  081%=      5-min Rain = 0
KSVS 050255Z 12009KT 23/19 A3001 RMK A01 T02290186  RH  081%=      5-min Rain = 0
KSVS 050300Z 12008KT 23/19 A3001 RMK A01 T02280186  RH  081%=      5-min Rain = 0
KSVS 050305Z 11007KT 23/19 A3001 RMK A01 T02270186  RH  082%=      5-min Rain = 0
KSVS 050310Z 11007KT 23/19 A3001 RMK A01 T02250186  RH  083%=      5-min Rain = 0
KSVS 050315Z 12007KT 22/19 A3001 RMK A01 T02240186  RH  083%=      5-min Rain = 0
KSVS 050320Z 12007KT 22/19 A3001 RMK A01 T02220186  RH  084%=      5-min Rain = 0
KSVS 050325Z 10006KT 22/19 A3002 RMK A01 T02210186  RH  085%=      5-min Rain = 0
KSVS 050330Z 09007KT 22/19 A3002 RMK A01 T02180186  RH  086%=      5-min Rain = 0
KSVS 050335Z 09006KT 22/19 A3002 RMK A01 T02170186  RH  087%=      5-min Rain = 0
KSVS 050340Z 09005KT 22/19 A3002 RMK A01 T02170186  RH  087%=      5-min Rain = 0
KSVS 050345Z 08004KT 22/19 A3002 RMK A01 T02160186  RH  088%=      5-min Rain = 0
KSVS 050350Z 09004KT 22/19 A3002 RMK A01 T02160185  RH  087%=      5-min Rain = 0
KSVS 050355Z 10004KT 22/19 A3001 RMK A01 T02150185  RH  087%=      5-min Rain = 0
KSVS 050400Z 10004KT 21/18 A3001 RMK A01 T02140184  RH  088%=      5-min Rain = 0
KSVS 050405Z 10004KT 21/18 A3001 RMK A01 T02120184  RH  089%=      5-min Rain = 0
KSVS 050410Z 10004KT 21/18 A3002 RMK A01 T02130184  RH  088%=      5-min Rain = 0
KSVS 050415Z 06003KT 21/18 A3002 RMK A01 T02120184  RH  089%=      5-min Rain = 0
KSVS 050420Z 03004KT 21/18 A3002 RMK A01 T02080182  RH  090%=      5-min Rain = 0
KSVS 050425Z 05005KT 21/18 A3002 RMK A01 T02070183  RH  091%=      5-min Rain = 0
KSVS 050430Z 06005KT 21/18 A3002 RMK A01 T02070183  RH  091%=      5-min Rain = 0
KSVS 050435Z 07004KT 21/18 A3003 RMK A01 T02080183  RH  091%=      5-min Rain = 0
KSVS 050440Z 07004KT 21/18 A3002 RMK A01 T02080184  RH  091%=      5-min Rain = 0
KSVS 050445Z 07005KT 21/19 A3002 RMK A01 T02090185  RH  091%=      5-min Rain = 0
KSVS 050450Z 08005KT 21/19 A3002 RMK A01 T02110185  RH  090%=      5-min Rain = 0
KSVS 050455Z 07004KT 21/19 A3002 RMK A01 T02100185  RH  090%=      5-min Rain = 0

Page generated in 0.0287 seconds.